Opelousas, Louisiana
Current Conditions -  °F | °C
As of 10:55 AM on Friday 28 Nov 2014 (Local Time) from KOPL Reporting Station
Clear Clear  
Wind Chill: 53°   Ceiling: Unl
Heat Index: 53°   Visibility: 10mi
Dew Point: 38°   Wind: 3mph
Humidity: 57%   Direction: 110°ESE
Pressure: 30.39"   Gusts: NA
Location:  30.53°N, 92.08°W
Report Text: KOPL 281655Z AUTO 11003KT 10SM CLR 12/03 A3039 RMK AO2 T01150033
Loading
Personal Weather Stations






























Interactive Weather Map New forecast layout! Learn more

10-Day Weather Forecast

Advertisements
Track Severe Weather on mobile